sensor_id;sensor_type;location;lat;lon;timestamp;P1;durP1;ratioP1;P2;durP2;ratioP2
16832;SDS011;8533;48.426;10.868;2023-09-19T00:01:14;2.10;;;1.43;;
16832;SDS011;8533;48.426;10.868;2023-09-19T00:03:40;2.77;;;1.80;;
16832;SDS011;8533;48.426;10.868;2023-09-19T00:06:07;5.63;;;1.60;;
16832;SDS011;8533;48.426;10.868;2023-09-19T00:08:33;2.03;;;1.70;;
16832;SDS011;8533;48.426;10.868;2023-09-19T00:10:59;1.60;;;1.37;;
16832;SDS011;8533;48.426;10.868;2023-09-19T00:13:34;4.93;;;1.60;;
16832;SDS011;8533;48.426;10.868;2023-09-19T00:16:01;2.93;;;1.60;;
16832;SDS011;8533;48.426;10.868;2023-09-19T00:18:32;4.37;;;1.67;;
16832;SDS011;8533;48.426;10.868;2023-09-19T00:21:00;1.70;;;1.47;;
16832;SDS011;8533;48.426;10.868;2023-09-19T00:23:25;4.33;;;1.50;;
16832;SDS011;8533;48.426;10.868;2023-09-19T00:25:52;2.20;;;1.40;;
16832;SDS011;8533;48.426;10.868;2023-09-19T00:28:17;2.33;;;1.50;;
16832;SDS011;8533;48.426;10.868;2023-09-19T00:30:44;3.03;;;1.40;;
16832;SDS011;8533;48.426;10.868;2023-09-19T00:33:10;3.27;;;1.53;;
16832;SDS011;8533;48.426;10.868;2023-09-19T00:35:46;2.50;;;1.57;;
16832;SDS011;8533;48.426;10.868;2023-09-19T00:38:15;2.60;;;1.70;;
16832;SDS011;8533;48.426;10.868;2023-09-19T00:40:46;1.60;;;1.50;;
16832;SDS011;8533;48.426;10.868;2023-09-19T00:43:12;2.43;;;1.50;;
16832;SDS011;8533;48.426;10.868;2023-09-19T00:45:38;4.27;;;1.97;;
16832;SDS011;8533;48.426;10.868;2023-09-19T00:48:08;2.43;;;1.50;;
16832;SDS011;8533;48.426;10.868;2023-09-19T00:50:34;2.60;;;1.60;;
16832;SDS011;8533;48.426;10.868;2023-09-19T00:53:00;2.03;;;1.60;;
16832;SDS011;8533;48.426;10.868;2023-09-19T00:55:32;1.80;;;1.50;;
16832;SDS011;8533;48.426;10.868;2023-09-19T00:57:59;4.00;;;1.93;;
16832;SDS011;8533;48.426;10.868;2023-09-19T01:00:26;4.30;;;1.80;;
16832;SDS011;8533;48.426;10.868;2023-09-19T01:02:51;3.60;;;1.77;;
16832;SDS011;8533;48.426;10.868;2023-09-19T01:05:17;3.07;;;2.00;;
16832;SDS011;8533;48.426;10.868;2023-09-19T01:07:43;2.53;;;1.60;;
16832;SDS011;8533;48.426;10.868;2023-09-19T01:10:10;4.13;;;1.80;;
16832;SDS011;8533;48.426;10.868;2023-09-19T01:12:45;2.87;;;1.87;;
16832;SDS011;8533;48.426;10.868;2023-09-19T01:15:17;2.00;;;1.53;;
16832;SDS011;8533;48.426;10.868;2023-09-19T01:20:53;5.23;;;1.70;;
16832;SDS011;8533;48.426;10.868;2023-09-19T01:26:33;2.80;;;1.80;;
16832;SDS011;8533;48.426;10.868;2023-09-19T01:32:04;2.77;;;1.80;;
16832;SDS011;8533;48.426;10.868;2023-09-19T01:34:44;2.93;;;1.77;;
16832;SDS011;8533;48.426;10.868;2023-09-19T01:37:14;2.17;;;1.90;;
16832;SDS011;8533;48.426;10.868;2023-09-19T01:39:44;2.47;;;1.90;;
16832;SDS011;8533;48.426;10.868;2023-09-19T01:42:19;2.30;;;1.80;;
16832;SDS011;8533;48.426;10.868;2023-09-19T01:44:57;2.40;;;1.70;;
16832;SDS011;8533;48.426;10.868;2023-09-19T01:47:35;2.30;;;1.87;;
16832;SDS011;8533;48.426;10.868;2023-09-19T01:52:46;3.50;;;1.73;;
16832;SDS011;8533;48.426;10.868;2023-09-19T01:55:19;2.53;;;1.70;;
16832;SDS011;8533;48.426;10.868;2023-09-19T01:58:00;2.70;;;1.77;;
16832;SDS011;8533;48.426;10.868;2023-09-19T02:00:32;2.97;;;1.90;;
16832;SDS011;8533;48.426;10.868;2023-09-19T02:03:01;2.27;;;1.80;;
16832;SDS011;8533;48.426;10.868;2023-09-19T02:05:27;2.93;;;2.03;;
16832;SDS011;8533;48.426;10.868;2023-09-19T02:07:53;2.30;;;1.87;;
16832;SDS011;8533;48.426;10.868;2023-09-19T02:10:19;2.83;;;2.03;;
16832;SDS011;8533;48.426;10.868;2023-09-19T02:12:44;5.77;;;2.07;;
16832;SDS011;8533;48.426;10.868;2023-09-19T02:15:10;4.53;;;1.87;;
16832;SDS011;8533;48.426;10.868;2023-09-19T02:17:35;5.13;;;1.87;;
16832;SDS011;8533;48.426;10.868;2023-09-19T02:20:01;2.87;;;2.00;;
16832;SDS011;8533;48.426;10.868;2023-09-19T02:22:28;3.23;;;2.00;;
16832;SDS011;8533;48.426;10.868;2023-09-19T02:24:54;2.20;;;1.80;;
16832;SDS011;8533;48.426;10.868;2023-09-19T02:27:23;3.17;;;1.70;;
16832;SDS011;8533;48.426;10.868;2023-09-19T02:29:48;3.37;;;1.80;;
16832;SDS011;8533;48.426;10.868;2023-09-19T02:32:14;2.80;;;1.73;;
16832;SDS011;8533;48.426;10.868;2023-09-19T02:34:39;2.80;;;1.90;;
16832;SDS011;8533;48.426;10.868;2023-09-19T02:37:05;3.60;;;1.90;;
16832;SDS011;8533;48.426;10.868;2023-09-19T02:39:31;2.50;;;1.80;;
16832;SDS011;8533;48.426;10.868;2023-09-19T02:41:57;3.80;;;2.20;;
16832;SDS011;8533;48.426;10.868;2023-09-19T02:44:22;2.63;;;2.00;;
16832;SDS011;8533;48.426;10.868;2023-09-19T02:46:48;4.40;;;1.70;;
16832;SDS011;8533;48.426;10.868;2023-09-19T02:49:14;3.40;;;1.90;;
16832;SDS011;8533;48.426;10.868;2023-09-19T02:51:39;4.07;;;2.03;;
16832;SDS011;8533;48.426;10.868;2023-09-19T02:54:05;3.17;;;2.13;;
16832;SDS011;8533;48.426;10.868;2023-09-19T02:56:30;4.40;;;2.40;;
16832;SDS011;8533;48.426;10.868;2023-09-19T02:58:57;3.40;;;2.17;;
16832;SDS011;8533;48.426;10.868;2023-09-19T03:01:22;2.83;;;1.97;;
16832;SDS011;8533;48.426;10.868;2023-09-19T03:03:48;2.90;;;2.00;;
16832;SDS011;8533;48.426;10.868;2023-09-19T03:06:14;2.93;;;1.83;;
16832;SDS011;8533;48.426;10.868;2023-09-19T03:08:39;3.93;;;2.07;;
16832;SDS011;8533;48.426;10.868;2023-09-19T03:11:07;3.00;;;2.07;;
16832;SDS011;8533;48.426;10.868;2023-09-19T03:13:36;2.10;;;1.90;;
16832;SDS011;8533;48.426;10.868;2023-09-19T03:16:03;5.60;;;1.80;;
16832;SDS011;8533;48.426;10.868;2023-09-19T03:18:30;3.17;;;2.07;;
16832;SDS011;8533;48.426;10.868;2023-09-19T03:20:57;2.27;;;1.73;;
16832;SDS011;8533;48.426;10.868;2023-09-19T03:23:24;5.17;;;1.80;;
16832;SDS011;8533;48.426;10.868;2023-09-19T03:25:51;3.77;;;1.90;;
16832;SDS011;8533;48.426;10.868;2023-09-19T03:28:17;3.90;;;1.80;;
16832;SDS011;8533;48.426;10.868;2023-09-19T03:30:43;6.30;;;2.07;;
16832;SDS011;8533;48.426;10.868;2023-09-19T03:33:08;2.43;;;1.93;;
16832;SDS011;8533;48.426;10.868;2023-09-19T03:35:37;3.80;;;2.07;;
16832;SDS011;8533;48.426;10.868;2023-09-19T03:38:03;2.43;;;1.43;;
16832;SDS011;8533;48.426;10.868;2023-09-19T03:40:29;1.90;;;1.60;;
16832;SDS011;8533;48.426;10.868;2023-09-19T03:42:54;1.97;;;1.70;;
16832;SDS011;8533;48.426;10.868;2023-09-19T03:45:20;2.97;;;1.77;;
16832;SDS011;8533;48.426;10.868;2023-09-19T03:47:45;2.43;;;2.00;;
16832;SDS011;8533;48.426;10.868;2023-09-19T03:50:13;2.83;;;1.70;;
16832;SDS011;8533;48.426;10.868;2023-09-19T03:52:42;5.40;;;2.03;;
16832;SDS011;8533;48.426;10.868;2023-09-19T03:55:08;2.20;;;1.57;;
16832;SDS011;8533;48.426;10.868;2023-09-19T03:57:34;3.33;;;1.90;;
16832;SDS011;8533;48.426;10.868;2023-09-19T04:00:00;3.57;;;1.63;;
16832;SDS011;8533;48.426;10.868;2023-09-19T04:02:26;2.93;;;1.97;;
16832;SDS011;8533;48.426;10.868;2023-09-19T04:04:57;2.10;;;1.80;;
16832;SDS011;8533;48.426;10.868;2023-09-19T04:07:23;1.90;;;1.67;;
16832;SDS011;8533;48.426;10.868;2023-09-19T04:09:48;3.43;;;1.80;;
16832;SDS011;8533;48.426;10.868;2023-09-19T04:12:14;3.93;;;1.70;;
16832;SDS011;8533;48.426;10.868;2023-09-19T04:14:41;2.47;;;1.80;;
16832;SDS011;8533;48.426;10.868;2023-09-19T04:17:07;4.40;;;2.10;;
16832;SDS011;8533;48.426;10.868;2023-09-19T04:19:32;3.70;;;2.10;;
16832;SDS011;8533;48.426;10.868;2023-09-19T04:21:58;4.20;;;1.87;;
16832;SDS011;8533;48.426;10.868;2023-09-19T04:24:23;1.93;;;1.63;;
16832;SDS011;8533;48.426;10.868;2023-09-19T04:26:49;3.73;;;1.90;;
16832;SDS011;8533;48.426;10.868;2023-09-19T04:29:14;2.97;;;1.73;;
16832;SDS011;8533;48.426;10.868;2023-09-19T04:31:40;1.63;;;1.53;;
16832;SDS011;8533;48.426;10.868;2023-09-19T04:34:08;1.67;;;1.57;;
16832;SDS011;8533;48.426;10.868;2023-09-19T04:36:35;5.17;;;2.17;;
16832;SDS011;8533;48.426;10.868;2023-09-19T04:39:01;2.33;;;1.50;;
16832;SDS011;8533;48.426;10.868;2023-09-19T04:41:29;2.40;;;1.90;;
16832;SDS011;8533;48.426;10.868;2023-09-19T04:43:55;1.97;;;1.73;;
16832;SDS011;8533;48.426;10.868;2023-09-19T04:46:20;2.77;;;2.00;;
16832;SDS011;8533;48.426;10.868;2023-09-19T04:48:46;2.30;;;1.53;;
16832;SDS011;8533;48.426;10.868;2023-09-19T04:51:11;1.67;;;1.53;;
16832;SDS011;8533;48.426;10.868;2023-09-19T04:53:36;3.10;;;2.03;;
16832;SDS011;8533;48.426;10.868;2023-09-19T04:56:02;3.53;;;1.70;;
16832;SDS011;8533;48.426;10.868;2023-09-19T04:58:29;3.07;;;1.80;;
16832;SDS011;8533;48.426;10.868;2023-09-19T05:00:55;3.23;;;1.70;;
16832;SDS011;8533;48.426;10.868;2023-09-19T05:03:21;2.90;;;2.00;;
16832;SDS011;8533;48.426;10.868;2023-09-19T05:05:47;3.13;;;1.80;;
16832;SDS011;8533;48.426;10.868;2023-09-19T05:08:12;6.60;;;2.00;;
16832;SDS011;8533;48.426;10.868;2023-09-19T05:10:39;5.17;;;1.70;;
16832;SDS011;8533;48.426;10.868;2023-09-19T05:13:05;2.57;;;1.80;;
16832;SDS011;8533;48.426;10.868;2023-09-19T05:15:32;2.07;;;1.70;;
16832;SDS011;8533;48.426;10.868;2023-09-19T05:17:57;3.70;;;1.80;;
16832;SDS011;8533;48.426;10.868;2023-09-19T05:20:22;2.90;;;2.07;;
16832;SDS011;8533;48.426;10.868;2023-09-19T05:23:03;4.10;;;2.23;;
16832;SDS011;8533;48.426;10.868;2023-09-19T05:25:33;2.77;;;1.53;;
16832;SDS011;8533;48.426;10.868;2023-09-19T05:28:02;2.83;;;2.00;;
16832;SDS011;8533;48.426;10.868;2023-09-19T05:30:28;4.10;;;1.93;;
16832;SDS011;8533;48.426;10.868;2023-09-19T05:32:54;2.80;;;1.73;;
16832;SDS011;8533;48.426;10.868;2023-09-19T05:35:20;2.10;;;1.90;;
16832;SDS011;8533;48.426;10.868;2023-09-19T05:37:47;2.20;;;1.90;;
16832;SDS011;8533;48.426;10.868;2023-09-19T05:40:15;4.63;;;2.07;;
16832;SDS011;8533;48.426;10.868;2023-09-19T05:42:41;3.33;;;1.87;;
16832;SDS011;8533;48.426;10.868;2023-09-19T05:45:09;2.67;;;2.10;;
16832;SDS011;8533;48.426;10.868;2023-09-19T05:47:37;1.60;;;1.50;;
16832;SDS011;8533;48.426;10.868;2023-09-19T05:50:10;2.73;;;2.00;;
16832;SDS011;8533;48.426;10.868;2023-09-19T05:52:36;2.53;;;1.53;;
16832;SDS011;8533;48.426;10.868;2023-09-19T05:55:03;4.10;;;1.90;;
16832;SDS011;8533;48.426;10.868;2023-09-19T05:57:30;2.57;;;1.70;;
16832;SDS011;8533;48.426;10.868;2023-09-19T05:59:55;3.10;;;2.10;;
16832;SDS011;8533;48.426;10.868;2023-09-19T06:02:21;3.83;;;1.80;;
16832;SDS011;8533;48.426;10.868;2023-09-19T06:04:46;3.60;;;1.63;;
16832;SDS011;8533;48.426;10.868;2023-09-19T06:07:11;3.80;;;1.53;;
16832;SDS011;8533;48.426;10.868;2023-09-19T06:09:37;2.33;;;1.90;;
16832;SDS011;8533;48.426;10.868;2023-09-19T06:12:02;4.47;;;1.83;;
16832;SDS011;8533;48.426;10.868;2023-09-19T06:14:29;3.67;;;1.80;;
16832;SDS011;8533;48.426;10.868;2023-09-19T06:16:55;1.87;;;1.47;;
16832;SDS011;8533;48.426;10.868;2023-09-19T06:19:21;6.77;;;1.57;;
16832;SDS011;8533;48.426;10.868;2023-09-19T06:21:47;6.97;;;2.00;;
16832;SDS011;8533;48.426;10.868;2023-09-19T06:24:13;3.63;;;1.73;;
16832;SDS011;8533;48.426;10.868;2023-09-19T06:26:39;2.40;;;1.60;;
16832;SDS011;8533;48.426;10.868;2023-09-19T06:29:04;2.33;;;1.53;;
16832;SDS011;8533;48.426;10.868;2023-09-19T06:31:32;2.83;;;1.50;;
16832;SDS011;8533;48.426;10.868;2023-09-19T06:33:58;3.93;;;1.70;;
16832;SDS011;8533;48.426;10.868;2023-09-19T06:36:23;3.23;;;1.53;;
16832;SDS011;8533;48.426;10.868;2023-09-19T06:38:49;5.17;;;1.90;;
16832;SDS011;8533;48.426;10.868;2023-09-19T06:41:16;2.67;;;1.63;;
16832;SDS011;8533;48.426;10.868;2023-09-19T06:43:42;2.67;;;1.60;;
16832;SDS011;8533;48.426;10.868;2023-09-19T06:46:07;7.80;;;1.60;;
16832;SDS011;8533;48.426;10.868;2023-09-19T06:48:33;2.40;;;1.67;;
16832;SDS011;8533;48.426;10.868;2023-09-19T06:50:58;3.60;;;1.50;;
16832;SDS011;8533;48.426;10.868;2023-09-19T06:53:29;3.13;;;1.67;;
16832;SDS011;8533;48.426;10.868;2023-09-19T06:55:56;3.17;;;1.50;;
16832;SDS011;8533;48.426;10.868;2023-09-19T06:58:22;1.50;;;1.40;;
16832;SDS011;8533;48.426;10.868;2023-09-19T07:00:47;1.90;;;1.53;;
16832;SDS011;8533;48.426;10.868;2023-09-19T07:03:15;6.47;;;1.37;;
16832;SDS011;8533;48.426;10.868;2023-09-19T07:05:43;4.97;;;2.03;;
16832;SDS011;8533;48.426;10.868;2023-09-19T07:08:09;5.03;;;1.60;;
16832;SDS011;8533;48.426;10.868;2023-09-19T07:10:38;2.63;;;1.47;;
16832;SDS011;8533;48.426;10.868;2023-09-19T07:13:13;2.63;;;1.60;;
16832;SDS011;8533;48.426;10.868;2023-09-19T07:15:41;3.10;;;1.57;;
16832;SDS011;8533;48.426;10.868;2023-09-19T07:18:11;2.00;;;1.60;;
16832;SDS011;8533;48.426;10.868;2023-09-19T07:20:41;3.83;;;1.70;;
16832;SDS011;8533;48.426;10.868;2023-09-19T07:23:20;2.47;;;1.40;;
16832;SDS011;8533;48.426;10.868;2023-09-19T07:25:51;1.40;;;1.30;;
16832;SDS011;8533;48.426;10.868;2023-09-19T07:28:16;2.93;;;1.33;;
16832;SDS011;8533;48.426;10.868;2023-09-19T07:30:41;2.07;;;1.60;;
16832;SDS011;8533;48.426;10.868;2023-09-19T07:33:07;5.73;;;1.60;;
16832;SDS011;8533;48.426;10.868;2023-09-19T07:35:32;1.70;;;1.20;;
16832;SDS011;8533;48.426;10.868;2023-09-19T07:37:58;2.60;;;1.50;;
16832;SDS011;8533;48.426;10.868;2023-09-19T07:40:26;4.17;;;2.03;;
16832;SDS011;8533;48.426;10.868;2023-09-19T07:42:54;1.40;;;1.30;;
16832;SDS011;8533;48.426;10.868;2023-09-19T07:45:20;1.70;;;1.57;;
16832;SDS011;8533;48.426;10.868;2023-09-19T07:47:46;4.27;;;1.40;;
16832;SDS011;8533;48.426;10.868;2023-09-19T07:50:12;3.53;;;1.77;;
16832;SDS011;8533;48.426;10.868;2023-09-19T07:52:38;3.53;;;1.60;;
16832;SDS011;8533;48.426;10.868;2023-09-19T07:55:04;3.00;;;1.17;;
16832;SDS011;8533;48.426;10.868;2023-09-19T07:57:33;2.30;;;1.33;;
16832;SDS011;8533;48.426;10.868;2023-09-19T07:59:59;3.20;;;1.23;;
16832;SDS011;8533;48.426;10.868;2023-09-19T08:02:24;3.73;;;1.20;;
16832;SDS011;8533;48.426;10.868;2023-09-19T08:04:50;2.00;;;1.20;;
16832;SDS011;8533;48.426;10.868;2023-09-19T08:07:17;1.80;;;1.40;;
16832;SDS011;8533;48.426;10.868;2023-09-19T08:09:43;2.47;;;1.30;;
16832;SDS011;8533;48.426;10.868;2023-09-19T08:12:11;1.87;;;1.50;;
16832;SDS011;8533;48.426;10.868;2023-09-19T08:14:36;2.70;;;1.27;;
16832;SDS011;8533;48.426;10.868;2023-09-19T08:17:06;1.27;;;1.10;;
16832;SDS011;8533;48.426;10.868;2023-09-19T08:19:33;2.33;;;1.30;;
16832;SDS011;8533;48.426;10.868;2023-09-19T08:21:58;4.13;;;1.07;;
16832;SDS011;8533;48.426;10.868;2023-09-19T08:24:24;1.97;;;1.20;;
16832;SDS011;8533;48.426;10.868;2023-09-19T08:26:53;1.60;;;1.13;;
16832;SDS011;8533;48.426;10.868;2023-09-19T08:29:20;5.53;;;1.13;;
16832;SDS011;8533;48.426;10.868;2023-09-19T08:31:46;1.63;;;1.20;;
16832;SDS011;8533;48.426;10.868;2023-09-19T08:34:14;1.40;;;1.20;;
16832;SDS011;8533;48.426;10.868;2023-09-19T08:36:40;1.43;;;1.10;;
16832;SDS011;8533;48.426;10.868;2023-09-19T08:39:06;2.27;;;1.20;;
16832;SDS011;8533;48.426;10.868;2023-09-19T08:41:33;1.60;;;1.23;;
16832;SDS011;8533;48.426;10.868;2023-09-19T08:43:59;3.60;;;1.30;;
16832;SDS011;8533;48.426;10.868;2023-09-19T08:46:26;1.93;;;1.47;;
16832;SDS011;8533;48.426;10.868;2023-09-19T08:49:03;2.40;;;1.20;;
16832;SDS011;8533;48.426;10.868;2023-09-19T08:51:40;5.70;;;1.30;;
16832;SDS011;8533;48.426;10.868;2023-09-19T08:54:12;2.80;;;1.00;;
16832;SDS011;8533;48.426;10.868;2023-09-19T08:56:51;3.17;;;1.10;;
16832;SDS011;8533;48.426;10.868;2023-09-19T08:59:20;1.43;;;1.20;;
16832;SDS011;8533;48.426;10.868;2023-09-19T09:01:50;2.20;;;2.00;;
16832;SDS011;8533;48.426;10.868;2023-09-19T09:04:18;2.40;;;0.93;;
16832;SDS011;8533;48.426;10.868;2023-09-19T09:06:45;1.60;;;1.17;;
16832;SDS011;8533;48.426;10.868;2023-09-19T09:09:13;2.20;;;1.03;;
16832;SDS011;8533;48.426;10.868;2023-09-19T09:11:39;1.77;;;1.00;;
16832;SDS011;8533;48.426;10.868;2023-09-19T09:14:06;1.80;;;1.20;;
16832;SDS011;8533;48.426;10.868;2023-09-19T09:16:32;3.10;;;1.53;;
16832;SDS011;8533;48.426;10.868;2023-09-19T09:18:57;3.37;;;1.13;;
16832;SDS011;8533;48.426;10.868;2023-09-19T09:21:26;1.37;;;1.27;;
16832;SDS011;8533;48.426;10.868;2023-09-19T09:23:51;3.33;;;0.90;;
16832;SDS011;8533;48.426;10.868;2023-09-19T09:26:33;1.17;;;1.00;;
16832;SDS011;8533;48.426;10.868;2023-09-19T09:29:07;2.20;;;1.20;;
16832;SDS011;8533;48.426;10.868;2023-09-19T09:31:33;1.10;;;1.00;;
16832;SDS011;8533;48.426;10.868;2023-09-19T09:33:58;5.70;;;1.23;;
16832;SDS011;8533;48.426;10.868;2023-09-19T09:36:33;2.90;;;1.10;;
16832;SDS011;8533;48.426;10.868;2023-09-19T09:39:01;1.00;;;0.90;;
16832;SDS011;8533;48.426;10.868;2023-09-19T09:41:41;2.27;;;1.07;;
16832;SDS011;8533;48.426;10.868;2023-09-19T09:44:13;1.60;;;1.10;;
16832;SDS011;8533;48.426;10.868;2023-09-19T09:46:44;1.60;;;1.30;;
16832;SDS011;8533;48.426;10.868;2023-09-19T09:49:39;1.30;;;1.20;;
16832;SDS011;8533;48.426;10.868;2023-09-19T09:52:05;1.17;;;1.07;;
16832;SDS011;8533;48.426;10.868;2023-09-19T09:54:33;1.70;;;1.40;;
16832;SDS011;8533;48.426;10.868;2023-09-19T09:57:02;1.30;;;1.20;;
16832;SDS011;8533;48.426;10.868;2023-09-19T10:02:26;1.63;;;1.00;;
16832;SDS011;8533;48.426;10.868;2023-09-19T10:04:58;6.53;;;1.30;;
16832;SDS011;8533;48.426;10.868;2023-09-19T10:07:31;1.00;;;1.00;;
16832;SDS011;8533;48.426;10.868;2023-09-19T10:10:07;1.50;;;1.00;;
16832;SDS011;8533;48.426;10.868;2023-09-19T10:12:44;1.30;;;1.10;;
16832;SDS011;8533;48.426;10.868;2023-09-19T10:15:11;2.10;;;0.80;;
16832;SDS011;8533;48.426;10.868;2023-09-19T10:17:42;1.50;;;1.37;;
16832;SDS011;8533;48.426;10.868;2023-09-19T10:20:17;1.47;;;1.00;;
16832;SDS011;8533;48.426;10.868;2023-09-19T10:23:00;2.23;;;1.27;;
16832;SDS011;8533;48.426;10.868;2023-09-19T10:25:28;1.17;;;1.03;;
16832;SDS011;8533;48.426;10.868;2023-09-19T10:27:55;1.53;;;0.97;;
16832;SDS011;8533;48.426;10.868;2023-09-19T10:30:24;1.20;;;1.10;;
16832;SDS011;8533;48.426;10.868;2023-09-19T10:32:54;2.10;;;1.33;;
16832;SDS011;8533;48.426;10.868;2023-09-19T10:35:24;1.27;;;1.03;;
16832;SDS011;8533;48.426;10.868;2023-09-19T10:37:51;1.30;;;1.20;;
16832;SDS011;8533;48.426;10.868;2023-09-19T10:40:19;0.97;;;0.97;;
16832;SDS011;8533;48.426;10.868;2023-09-19T10:42:48;1.93;;;1.10;;
16832;SDS011;8533;48.426;10.868;2023-09-19T10:45:15;1.10;;;1.00;;
16832;SDS011;8533;48.426;10.868;2023-09-19T10:47:45;2.47;;;1.00;;
16832;SDS011;8533;48.426;10.868;2023-09-19T10:50:19;2.67;;;1.20;;
16832;SDS011;8533;48.426;10.868;2023-09-19T10:52:46;2.63;;;0.97;;
16832;SDS011;8533;48.426;10.868;2023-09-19T10:55:18;1.53;;;1.20;;
16832;SDS011;8533;48.426;10.868;2023-09-19T10:57:45;1.80;;;1.40;;
16832;SDS011;8533;48.426;10.868;2023-09-19T11:00:11;1.50;;;1.00;;
16832;SDS011;8533;48.426;10.868;2023-09-19T11:05:39;1.63;;;1.30;;
16832;SDS011;8533;48.426;10.868;2023-09-19T11:08:09;2.17;;;1.00;;
16832;SDS011;8533;48.426;10.868;2023-09-19T11:10:46;1.40;;;1.27;;
16832;SDS011;8533;48.426;10.868;2023-09-19T11:13:25;0.90;;;0.90;;
16832;SDS011;8533;48.426;10.868;2023-09-19T11:24:41;1.30;;;1.00;;
16832;SDS011;8533;48.426;10.868;2023-09-19T11:27:11;1.30;;;1.20;;
16832;SDS011;8533;48.426;10.868;2023-09-19T11:29:38;2.37;;;1.30;;
16832;SDS011;8533;48.426;10.868;2023-09-19T11:32:05;1.40;;;1.30;;
16832;SDS011;8533;48.426;10.868;2023-09-19T11:37:05;2.43;;;1.23;;
16832;SDS011;8533;48.426;10.868;2023-09-19T11:40:06;3.83;;;1.10;;
16832;SDS011;8533;48.426;10.868;2023-09-19T11:42:53;1.87;;;1.20;;
16832;SDS011;8533;48.426;10.868;2023-09-19T11:48:10;2.00;;;1.07;;
16832;SDS011;8533;48.426;10.868;2023-09-19T11:50:38;1.03;;;1.00;;
16832;SDS011;8533;48.426;10.868;2023-09-19T11:53:08;2.13;;;1.20;;
16832;SDS011;8533;48.426;10.868;2023-09-19T11:55:36;1.33;;;1.20;;
16832;SDS011;8533;48.426;10.868;2023-09-19T11:58:03;2.80;;;1.23;;
16832;SDS011;8533;48.426;10.868;2023-09-19T12:00:29;3.57;;;1.10;;
16832;SDS011;8533;48.426;10.868;2023-09-19T12:02:56;1.00;;;1.00;;
16832;SDS011;8533;48.426;10.868;2023-09-19T12:05:28;2.47;;;1.10;;
16832;SDS011;8533;48.426;10.868;2023-09-19T12:07:54;1.43;;;1.03;;
16832;SDS011;8533;48.426;10.868;2023-09-19T12:10:19;1.20;;;1.10;;
16832;SDS011;8533;48.426;10.868;2023-09-19T12:12:47;3.23;;;1.40;;
16832;SDS011;8533;48.426;10.868;2023-09-19T12:15:14;5.10;;;1.10;;
16832;SDS011;8533;48.426;10.868;2023-09-19T12:17:40;1.13;;;0.93;;
16832;SDS011;8533;48.426;10.868;2023-09-19T12:20:07;2.07;;;1.03;;
16832;SDS011;8533;48.426;10.868;2023-09-19T12:22:40;1.20;;;1.10;;
16832;SDS011;8533;48.426;10.868;2023-09-19T12:25:08;1.20;;;1.10;;
16832;SDS011;8533;48.426;10.868;2023-09-19T12:27:49;2.03;;;1.10;;
16832;SDS011;8533;48.426;10.868;2023-09-19T12:30:18;1.20;;;1.10;;
16832;SDS011;8533;48.426;10.868;2023-09-19T12:32:45;1.57;;;1.10;;
16832;SDS011;8533;48.426;10.868;2023-09-19T12:35:29;1.17;;;0.90;;
16832;SDS011;8533;48.426;10.868;2023-09-19T12:38:01;1.40;;;1.13;;
16832;SDS011;8533;48.426;10.868;2023-09-19T12:40:28;1.00;;;1.00;;
16832;SDS011;8533;48.426;10.868;2023-09-19T12:42:57;2.03;;;1.27;;
16832;SDS011;8533;48.426;10.868;2023-09-19T12:45:24;1.97;;;1.20;;
16832;SDS011;8533;48.426;10.868;2023-09-19T12:53:32;2.03;;;1.23;;
16832;SDS011;8533;48.426;10.868;2023-09-19T12:56:14;1.77;;;1.30;;
16832;SDS011;8533;48.426;10.868;2023-09-19T12:58:54;2.10;;;1.47;;
16832;SDS011;8533;48.426;10.868;2023-09-19T13:01:21;1.53;;;1.00;;
16832;SDS011;8533;48.426;10.868;2023-09-19T13:06:47;1.37;;;1.07;;
16832;SDS011;8533;48.426;10.868;2023-09-19T13:09:14;1.27;;;1.00;;
16832;SDS011;8533;48.426;10.868;2023-09-19T13:11:40;1.27;;;1.17;;
16832;SDS011;8533;48.426;10.868;2023-09-19T13:14:22;2.57;;;1.40;;
16832;SDS011;8533;48.426;10.868;2023-09-19T13:25:08;1.77;;;1.17;;
16832;SDS011;8533;48.426;10.868;2023-09-19T13:27:43;1.00;;;1.00;;
16832;SDS011;8533;48.426;10.868;2023-09-19T13:30:11;1.13;;;1.03;;
16832;SDS011;8533;48.426;10.868;2023-09-19T13:32:37;3.77;;;1.37;;
16832;SDS011;8533;48.426;10.868;2023-09-19T13:35:03;1.37;;;1.20;;
16832;SDS011;8533;48.426;10.868;2023-09-19T13:37:30;1.00;;;1.00;;
16832;SDS011;8533;48.426;10.868;2023-09-19T13:39:55;1.10;;;1.00;;
16832;SDS011;8533;48.426;10.868;2023-09-19T13:42:22;1.33;;;1.23;;
16832;SDS011;8533;48.426;10.868;2023-09-19T13:44:50;3.37;;;1.17;;
16832;SDS011;8533;48.426;10.868;2023-09-19T13:47:15;1.53;;;1.43;;
16832;SDS011;8533;48.426;10.868;2023-09-19T13:49:41;1.23;;;1.10;;
16832;SDS011;8533;48.426;10.868;2023-09-19T13:52:08;1.27;;;1.17;;
16832;SDS011;8533;48.426;10.868;2023-09-19T13:54:34;2.27;;;1.50;;
16832;SDS011;8533;48.426;10.868;2023-09-19T13:56:59;1.50;;;1.40;;
16832;SDS011;8533;48.426;10.868;2023-09-19T13:59:25;1.97;;;0.90;;
16832;SDS011;8533;48.426;10.868;2023-09-19T14:01:53;1.20;;;1.10;;
16832;SDS011;8533;48.426;10.868;2023-09-19T14:04:19;1.70;;;1.30;;
16832;SDS011;8533;48.426;10.868;2023-09-19T14:06:47;1.40;;;1.07;;
16832;SDS011;8533;48.426;10.868;2023-09-19T14:09:12;1.40;;;1.30;;
16832;SDS011;8533;48.426;10.868;2023-09-19T14:11:38;1.40;;;1.30;;
16832;SDS011;8533;48.426;10.868;2023-09-19T14:14:04;0.90;;;0.90;;
16832;SDS011;8533;48.426;10.868;2023-09-19T14:16:29;2.70;;;1.40;;
16832;SDS011;8533;48.426;10.868;2023-09-19T14:18:56;1.63;;;1.23;;
16832;SDS011;8533;48.426;10.868;2023-09-19T14:21:21;1.53;;;1.23;;
16832;SDS011;8533;48.426;10.868;2023-09-19T14:23:48;1.20;;;1.00;;
16832;SDS011;8533;48.426;10.868;2023-09-19T14:26:14;1.23;;;1.13;;
16832;SDS011;8533;48.426;10.868;2023-09-19T14:28:41;1.07;;;1.00;;
16832;SDS011;8533;48.426;10.868;2023-09-19T14:31:07;1.50;;;1.40;;
16832;SDS011;8533;48.426;10.868;2023-09-19T14:33:34;1.57;;;1.30;;
16832;SDS011;8533;48.426;10.868;2023-09-19T14:36:03;1.30;;;1.20;;
16832;SDS011;8533;48.426;10.868;2023-09-19T14:38:31;1.43;;;1.00;;
16832;SDS011;8533;48.426;10.868;2023-09-19T14:41:01;3.37;;;1.27;;
16832;SDS011;8533;48.426;10.868;2023-09-19T14:43:27;4.40;;;1.60;;
16832;SDS011;8533;48.426;10.868;2023-09-19T14:45:55;2.40;;;1.50;;
16832;SDS011;8533;48.426;10.868;2023-09-19T14:48:41;2.77;;;1.43;;
16832;SDS011;8533;48.426;10.868;2023-09-19T14:51:07;3.20;;;1.30;;
16832;SDS011;8533;48.426;10.868;2023-09-19T14:53:36;1.70;;;1.17;;
16832;SDS011;8533;48.426;10.868;2023-09-19T14:56:07;1.80;;;1.40;;
16832;SDS011;8533;48.426;10.868;2023-09-19T14:58:33;2.07;;;1.20;;
16832;SDS011;8533;48.426;10.868;2023-09-19T15:03:35;1.40;;;1.20;;
16832;SDS011;8533;48.426;10.868;2023-09-19T15:06:04;3.17;;;1.40;;
16832;SDS011;8533;48.426;10.868;2023-09-19T15:08:34;1.30;;;1.20;;
16832;SDS011;8533;48.426;10.868;2023-09-19T15:11:03;2.00;;;1.10;;
16832;SDS011;8533;48.426;10.868;2023-09-19T15:13:35;2.73;;;1.60;;
16832;SDS011;8533;48.426;10.868;2023-09-19T15:16:02;1.50;;;1.30;;
16832;SDS011;8533;48.426;10.868;2023-09-19T15:18:35;2.57;;;1.27;;
16832;SDS011;8533;48.426;10.868;2023-09-19T15:21:02;1.77;;;1.60;;
16832;SDS011;8533;48.426;10.868;2023-09-19T15:23:29;6.07;;;1.13;;
16832;SDS011;8533;48.426;10.868;2023-09-19T15:25:59;1.63;;;1.30;;
16832;SDS011;8533;48.426;10.868;2023-09-19T15:28:26;1.70;;;1.27;;
16832;SDS011;8533;48.426;10.868;2023-09-19T15:31:04;3.53;;;1.20;;
16832;SDS011;8533;48.426;10.868;2023-09-19T15:33:31;1.93;;;1.20;;
16832;SDS011;8533;48.426;10.868;2023-09-19T15:36:15;1.40;;;1.27;;
16832;SDS011;8533;48.426;10.868;2023-09-19T15:41:19;1.63;;;1.13;;
16832;SDS011;8533;48.426;10.868;2023-09-19T15:43:45;3.17;;;1.50;;
16832;SDS011;8533;48.426;10.868;2023-09-19T15:46:11;2.23;;;1.30;;
16832;SDS011;8533;48.426;10.868;2023-09-19T15:48:36;1.47;;;1.10;;